Northbush, New York
Current Conditions -  °F | °C
As of 9:35 AM on Friday 31 Oct 2014 (Local Time) from KNY0 Reporting Station
Overcast Overcast  
Wind Chill: 33°   Ceiling: 100
Heat Index: 33°   Visibility: 0.25mi
Dew Point: 33°   Wind: 0mph
Humidity: 99%   Direction: NA
Pressure: 30.04"   Gusts: NA
Location:  43.0176°N, 74.3982°W
Report Text: KNY0 311335Z AUTO 00000KT 1/4SM OVC001 01/01 A3004 RMK AO2 T00060005
Loading
Personal Weather Stations






























Interactive Weather Map
Tropical Storm Tracking
New forecast layout! Learn more

10-Day Weather Forecast

Advertisements
Track Severe Weather on mobile